sensor_id;sensor_type;location;lat;lon;timestamp;P1;durP1;ratioP1;P2;durP2;ratioP2
15637;SDS011;26604;53.596;10.042;2022-11-13T00:01:08;0.60;;;0.60;;
15637;SDS011;26604;53.596;10.042;2022-11-13T00:03:38;0.82;;;0.70;;
15637;SDS011;26604;53.596;10.042;2022-11-13T00:06:05;1.40;;;0.73;;
15637;SDS011;26604;53.596;10.042;2022-11-13T00:08:32;0.93;;;0.70;;
15637;SDS011;26604;53.596;10.042;2022-11-13T00:10:59;0.90;;;0.68;;
15637;SDS011;26604;53.596;10.042;2022-11-13T00:13:27;0.60;;;0.55;;
15637;SDS011;26604;53.596;10.042;2022-11-13T00:15:57;0.68;;;0.57;;
15637;SDS011;26604;53.596;10.042;2022-11-13T00:18:25;0.88;;;0.75;;
15637;SDS011;26604;53.596;10.042;2022-11-13T00:20:55;1.17;;;0.60;;
15637;SDS011;26604;53.596;10.042;2022-11-13T00:23:22;0.70;;;0.70;;
15637;SDS011;26604;53.596;10.042;2022-11-13T00:25:49;0.80;;;0.60;;
15637;SDS011;26604;53.596;10.042;2022-11-13T00:28:16;0.73;;;0.73;;
15637;SDS011;26604;53.596;10.042;2022-11-13T00:30:43;0.50;;;0.50;;
15637;SDS011;26604;53.596;10.042;2022-11-13T00:33:10;0.60;;;0.60;;
15637;SDS011;26604;53.596;10.042;2022-11-13T00:35:37;0.77;;;0.68;;
15637;SDS011;26604;53.596;10.042;2022-11-13T00:38:05;0.47;;;0.47;;
15637;SDS011;26604;53.596;10.042;2022-11-13T00:40:32;1.00;;;0.70;;
15637;SDS011;26604;53.596;10.042;2022-11-13T00:42:58;0.90;;;0.57;;
15637;SDS011;26604;53.596;10.042;2022-11-13T00:45:25;0.50;;;0.47;;
15637;SDS011;26604;53.596;10.042;2022-11-13T00:47:52;1.70;;;0.60;;
15637;SDS011;26604;53.596;10.042;2022-11-13T00:50:19;0.95;;;0.50;;
15637;SDS011;26604;53.596;10.042;2022-11-13T00:52:46;0.52;;;0.50;;
15637;SDS011;26604;53.596;10.042;2022-11-13T00:55:14;0.90;;;0.60;;
15637;SDS011;26604;53.596;10.042;2022-11-13T00:57:41;0.75;;;0.70;;
15637;SDS011;26604;53.596;10.042;2022-11-13T01:00:08;0.70;;;0.60;;
15637;SDS011;26604;53.596;10.042;2022-11-13T01:02:36;0.50;;;0.47;;
15637;SDS011;26604;53.596;10.042;2022-11-13T01:05:03;0.80;;;0.70;;
15637;SDS011;26604;53.596;10.042;2022-11-13T01:07:31;0.95;;;0.70;;
15637;SDS011;26604;53.596;10.042;2022-11-13T01:09:57;0.98;;;0.63;;
15637;SDS011;26604;53.596;10.042;2022-11-13T01:12:26;1.30;;;0.73;;
15637;SDS011;26604;53.596;10.042;2022-11-13T01:14:53;0.90;;;0.60;;
15637;SDS011;26604;53.596;10.042;2022-11-13T01:17:20;1.80;;;0.60;;
15637;SDS011;26604;53.596;10.042;2022-11-13T01:19:47;0.80;;;0.60;;
15637;SDS011;26604;53.596;10.042;2022-11-13T01:22:14;0.50;;;0.50;;
15637;SDS011;26604;53.596;10.042;2022-11-13T01:24:41;0.73;;;0.63;;
15637;SDS011;26604;53.596;10.042;2022-11-13T01:27:08;1.30;;;0.90;;
15637;SDS011;26604;53.596;10.042;2022-11-13T01:29:37;0.50;;;0.50;;
15637;SDS011;26604;53.596;10.042;2022-11-13T01:32:04;0.90;;;0.52;;
15637;SDS011;26604;53.596;10.042;2022-11-13T01:34:31;0.73;;;0.60;;
15637;SDS011;26604;53.596;10.042;2022-11-13T01:36:58;0.93;;;0.73;;
15637;SDS011;26604;53.596;10.042;2022-11-13T01:39:25;1.10;;;0.60;;
15637;SDS011;26604;53.596;10.042;2022-11-13T01:41:52;0.60;;;0.60;;
15637;SDS011;26604;53.596;10.042;2022-11-13T01:44:19;0.80;;;0.60;;
15637;SDS011;26604;53.596;10.042;2022-11-13T01:46:47;0.90;;;0.70;;
15637;SDS011;26604;53.596;10.042;2022-11-13T01:49:27;0.50;;;0.50;;
15637;SDS011;26604;53.596;10.042;2022-11-13T01:51:57;0.90;;;0.70;;
15637;SDS011;26604;53.596;10.042;2022-11-13T01:54:26;0.70;;;0.60;;
15637;SDS011;26604;53.596;10.042;2022-11-13T01:56:56;0.70;;;0.60;;
15637;SDS011;26604;53.596;10.042;2022-11-13T01:59:24;0.80;;;0.60;;
15637;SDS011;26604;53.596;10.042;2022-11-13T02:01:55;1.10;;;0.75;;
15637;SDS011;26604;53.596;10.042;2022-11-13T02:04:22;0.57;;;0.50;;
15637;SDS011;26604;53.596;10.042;2022-11-13T02:06:51;0.60;;;0.60;;
15637;SDS011;26604;53.596;10.042;2022-11-13T02:09:21;0.80;;;0.60;;
15637;SDS011;26604;53.596;10.042;2022-11-13T02:11:50;1.02;;;0.75;;
15637;SDS011;26604;53.596;10.042;2022-11-13T02:14:18;0.70;;;0.50;;
15637;SDS011;26604;53.596;10.042;2022-11-13T02:16:47;0.60;;;0.60;;
15637;SDS011;26604;53.596;10.042;2022-11-13T02:19:18;0.70;;;0.70;;
15637;SDS011;26604;53.596;10.042;2022-11-13T02:21:51;0.45;;;0.45;;
15637;SDS011;26604;53.596;10.042;2022-11-13T02:24:27;0.60;;;0.52;;
15637;SDS011;26604;53.596;10.042;2022-11-13T02:26:57;0.70;;;0.70;;
15637;SDS011;26604;53.596;10.042;2022-11-13T02:29:27;1.00;;;0.60;;
15637;SDS011;26604;53.596;10.042;2022-11-13T02:31:53;0.80;;;0.70;;
15637;SDS011;26604;53.596;10.042;2022-11-13T02:34:20;0.90;;;0.60;;
15637;SDS011;26604;53.596;10.042;2022-11-13T02:36:48;0.65;;;0.60;;
15637;SDS011;26604;53.596;10.042;2022-11-13T02:39:15;0.70;;;0.60;;
15637;SDS011;26604;53.596;10.042;2022-11-13T02:41:43;0.80;;;0.60;;
15637;SDS011;26604;53.596;10.042;2022-11-13T02:44:10;0.68;;;0.68;;
15637;SDS011;26604;53.596;10.042;2022-11-13T02:46:37;0.65;;;0.50;;
15637;SDS011;26604;53.596;10.042;2022-11-13T02:49:04;0.80;;;0.70;;
15637;SDS011;26604;53.596;10.042;2022-11-13T02:51:31;0.70;;;0.60;;
15637;SDS011;26604;53.596;10.042;2022-11-13T02:53:58;1.02;;;0.80;;
15637;SDS011;26604;53.596;10.042;2022-11-13T02:56:25;0.73;;;0.68;;
15637;SDS011;26604;53.596;10.042;2022-11-13T02:58:53;0.50;;;0.50;;
15637;SDS011;26604;53.596;10.042;2022-11-13T03:01:20;0.55;;;0.50;;
15637;SDS011;26604;53.596;10.042;2022-11-13T03:03:47;0.88;;;0.65;;
15637;SDS011;26604;53.596;10.042;2022-11-13T03:06:14;1.05;;;0.63;;
15637;SDS011;26604;53.596;10.042;2022-11-13T03:08:41;0.95;;;0.60;;
15637;SDS011;26604;53.596;10.042;2022-11-13T03:11:08;0.95;;;0.70;;
15637;SDS011;26604;53.596;10.042;2022-11-13T03:13:36;0.95;;;0.70;;
15637;SDS011;26604;53.596;10.042;2022-11-13T03:16:08;0.63;;;0.63;;
15637;SDS011;26604;53.596;10.042;2022-11-13T03:18:36;0.80;;;0.70;;
15637;SDS011;26604;53.596;10.042;2022-11-13T03:21:07;0.60;;;0.60;;
15637;SDS011;26604;53.596;10.042;2022-11-13T03:23:35;1.02;;;0.75;;
15637;SDS011;26604;53.596;10.042;2022-11-13T03:26:03;0.70;;;0.70;;
15637;SDS011;26604;53.596;10.042;2022-11-13T03:28:31;0.52;;;0.50;;
15637;SDS011;26604;53.596;10.042;2022-11-13T03:30:58;0.77;;;0.77;;
15637;SDS011;26604;53.596;10.042;2022-11-13T03:33:27;0.93;;;0.70;;
15637;SDS011;26604;53.596;10.042;2022-11-13T03:35:54;0.60;;;0.60;;
15637;SDS011;26604;53.596;10.042;2022-11-13T03:38:21;0.63;;;0.50;;
15637;SDS011;26604;53.596;10.042;2022-11-13T03:40:48;0.52;;;0.50;;
15637;SDS011;26604;53.596;10.042;2022-11-13T03:43:15;1.08;;;0.60;;
15637;SDS011;26604;53.596;10.042;2022-11-13T03:45:43;0.75;;;0.63;;
15637;SDS011;26604;53.596;10.042;2022-11-13T03:48:10;0.88;;;0.60;;
15637;SDS011;26604;53.596;10.042;2022-11-13T03:50:39;1.10;;;0.80;;
15637;SDS011;26604;53.596;10.042;2022-11-13T03:53:07;0.70;;;0.60;;
15637;SDS011;26604;53.596;10.042;2022-11-13T03:55:34;0.70;;;0.70;;
15637;SDS011;26604;53.596;10.042;2022-11-13T03:58:01;0.68;;;0.50;;
15637;SDS011;26604;53.596;10.042;2022-11-13T04:00:28;0.88;;;0.60;;
15637;SDS011;26604;53.596;10.042;2022-11-13T04:02:55;0.60;;;0.60;;
15637;SDS011;26604;53.596;10.042;2022-11-13T04:05:22;1.10;;;0.80;;
15637;SDS011;26604;53.596;10.042;2022-11-13T04:07:51;0.70;;;0.65;;
15637;SDS011;26604;53.596;10.042;2022-11-13T04:10:17;1.15;;;0.80;;
15637;SDS011;26604;53.596;10.042;2022-11-13T04:12:44;0.70;;;0.60;;
15637;SDS011;26604;53.596;10.042;2022-11-13T04:15:11;0.82;;;0.60;;
15637;SDS011;26604;53.596;10.042;2022-11-13T04:17:38;0.50;;;0.47;;
15637;SDS011;26604;53.596;10.042;2022-11-13T04:20:06;0.70;;;0.50;;
15637;SDS011;26604;53.596;10.042;2022-11-13T04:22:33;1.10;;;0.60;;
15637;SDS011;26604;53.596;10.042;2022-11-13T04:25:02;1.02;;;0.70;;
15637;SDS011;26604;53.596;10.042;2022-11-13T04:27:29;0.70;;;0.68;;
15637;SDS011;26604;53.596;10.042;2022-11-13T04:29:56;0.57;;;0.57;;
15637;SDS011;26604;53.596;10.042;2022-11-13T04:32:23;0.57;;;0.57;;
15637;SDS011;26604;53.596;10.042;2022-11-13T04:34:50;0.63;;;0.60;;
15637;SDS011;26604;53.596;10.042;2022-11-13T04:37:17;0.70;;;0.70;;
15637;SDS011;26604;53.596;10.042;2022-11-13T04:39:44;0.70;;;0.70;;
15637;SDS011;26604;53.596;10.042;2022-11-13T04:42:12;0.77;;;0.60;;
15637;SDS011;26604;53.596;10.042;2022-11-13T04:44:53;0.50;;;0.50;;
15637;SDS011;26604;53.596;10.042;2022-11-13T04:47:19;1.02;;;0.70;;
15637;SDS011;26604;53.596;10.042;2022-11-13T04:49:46;0.70;;;0.68;;
15637;SDS011;26604;53.596;10.042;2022-11-13T04:52:13;0.73;;;0.73;;
15637;SDS011;26604;53.596;10.042;2022-11-13T04:54:40;1.02;;;0.90;;
15637;SDS011;26604;53.596;10.042;2022-11-13T04:57:07;0.80;;;0.63;;
15637;SDS011;26604;53.596;10.042;2022-11-13T04:59:35;0.52;;;0.52;;
15637;SDS011;26604;53.596;10.042;2022-11-13T05:02:02;0.80;;;0.70;;
15637;SDS011;26604;53.596;10.042;2022-11-13T05:04:29;0.75;;;0.65;;
15637;SDS011;26604;53.596;10.042;2022-11-13T05:06:56;0.73;;;0.63;;
15637;SDS011;26604;53.596;10.042;2022-11-13T05:09:23;1.05;;;0.77;;
15637;SDS011;26604;53.596;10.042;2022-11-13T05:11:49;0.60;;;0.60;;
15637;SDS011;26604;53.596;10.042;2022-11-13T05:14:16;0.98;;;0.60;;
15637;SDS011;26604;53.596;10.042;2022-11-13T05:16:44;0.80;;;0.80;;
15637;SDS011;26604;53.596;10.042;2022-11-13T05:19:14;0.60;;;0.60;;
15637;SDS011;26604;53.596;10.042;2022-11-13T05:21:41;0.65;;;0.60;;
15637;SDS011;26604;53.596;10.042;2022-11-13T05:24:08;0.73;;;0.60;;
15637;SDS011;26604;53.596;10.042;2022-11-13T05:26:36;0.90;;;0.60;;
15637;SDS011;26604;53.596;10.042;2022-11-13T05:29:03;0.90;;;0.70;;
15637;SDS011;26604;53.596;10.042;2022-11-13T05:31:30;0.65;;;0.57;;
15637;SDS011;26604;53.596;10.042;2022-11-13T05:33:58;0.85;;;0.73;;
15637;SDS011;26604;53.596;10.042;2022-11-13T05:36:25;0.60;;;0.60;;
15637;SDS011;26604;53.596;10.042;2022-11-13T05:38:52;0.80;;;0.70;;
15637;SDS011;26604;53.596;10.042;2022-11-13T05:41:19;0.80;;;0.50;;
15637;SDS011;26604;53.596;10.042;2022-11-13T05:43:47;1.20;;;0.90;;
15637;SDS011;26604;53.596;10.042;2022-11-13T05:46:15;1.08;;;0.80;;
15637;SDS011;26604;53.596;10.042;2022-11-13T05:48:44;0.70;;;0.60;;
15637;SDS011;26604;53.596;10.042;2022-11-13T05:51:14;0.57;;;0.57;;
15637;SDS011;26604;53.596;10.042;2022-11-13T05:53:43;0.77;;;0.70;;
15637;SDS011;26604;53.596;10.042;2022-11-13T05:56:11;0.70;;;0.70;;
15637;SDS011;26604;53.596;10.042;2022-11-13T05:58:39;0.75;;;0.73;;
15637;SDS011;26604;53.596;10.042;2022-11-13T06:01:07;0.60;;;0.60;;
15637;SDS011;26604;53.596;10.042;2022-11-13T06:03:36;0.98;;;0.75;;
15637;SDS011;26604;53.596;10.042;2022-11-13T06:06:04;0.50;;;0.50;;
15637;SDS011;26604;53.596;10.042;2022-11-13T06:08:33;0.70;;;0.65;;
15637;SDS011;26604;53.596;10.042;2022-11-13T06:11:00;0.77;;;0.57;;
15637;SDS011;26604;53.596;10.042;2022-11-13T06:13:28;0.57;;;0.50;;
15637;SDS011;26604;53.596;10.042;2022-11-13T06:15:58;0.88;;;0.70;;
15637;SDS011;26604;53.596;10.042;2022-11-13T06:18:26;0.60;;;0.60;;
15637;SDS011;26604;53.596;10.042;2022-11-13T06:20:54;0.60;;;0.60;;
15637;SDS011;26604;53.596;10.042;2022-11-13T06:23:21;0.85;;;0.80;;
15637;SDS011;26604;53.596;10.042;2022-11-13T06:25:49;0.80;;;0.70;;
15637;SDS011;26604;53.596;10.042;2022-11-13T06:28:16;0.50;;;0.50;;
15637;SDS011;26604;53.596;10.042;2022-11-13T06:30:43;0.60;;;0.55;;
15637;SDS011;26604;53.596;10.042;2022-11-13T06:33:09;0.60;;;0.60;;
15637;SDS011;26604;53.596;10.042;2022-11-13T06:35:36;0.60;;;0.60;;
15637;SDS011;26604;53.596;10.042;2022-11-13T06:38:03;0.73;;;0.73;;
15637;SDS011;26604;53.596;10.042;2022-11-13T06:40:30;0.50;;;0.50;;
15637;SDS011;26604;53.596;10.042;2022-11-13T06:42:58;0.60;;;0.57;;
15637;SDS011;26604;53.596;10.042;2022-11-13T06:45:25;0.98;;;0.90;;
15637;SDS011;26604;53.596;10.042;2022-11-13T06:47:52;0.77;;;0.60;;
15637;SDS011;26604;53.596;10.042;2022-11-13T06:50:20;0.95;;;0.60;;
15637;SDS011;26604;53.596;10.042;2022-11-13T06:52:47;0.70;;;0.57;;
15637;SDS011;26604;53.596;10.042;2022-11-13T06:55:13;0.65;;;0.60;;
15637;SDS011;26604;53.596;10.042;2022-11-13T06:57:40;0.40;;;0.40;;
15637;SDS011;26604;53.596;10.042;2022-11-13T07:00:10;0.95;;;0.77;;
15637;SDS011;26604;53.596;10.042;2022-11-13T07:02:37;0.93;;;0.80;;
15637;SDS011;26604;53.596;10.042;2022-11-13T07:05:04;0.65;;;0.60;;
15637;SDS011;26604;53.596;10.042;2022-11-13T07:07:31;0.60;;;0.50;;
15637;SDS011;26604;53.596;10.042;2022-11-13T07:09:58;0.65;;;0.60;;
15637;SDS011;26604;53.596;10.042;2022-11-13T07:12:26;0.65;;;0.50;;
15637;SDS011;26604;53.596;10.042;2022-11-13T07:14:53;0.82;;;0.60;;
15637;SDS011;26604;53.596;10.042;2022-11-13T07:17:21;0.60;;;0.60;;
15637;SDS011;26604;53.596;10.042;2022-11-13T07:19:48;0.80;;;0.60;;
15637;SDS011;26604;53.596;10.042;2022-11-13T07:22:15;0.98;;;0.60;;
15637;SDS011;26604;53.596;10.042;2022-11-13T07:24:42;0.85;;;0.73;;
15637;SDS011;26604;53.596;10.042;2022-11-13T07:27:08;0.88;;;0.68;;
15637;SDS011;26604;53.596;10.042;2022-11-13T07:29:35;0.70;;;0.57;;
15637;SDS011;26604;53.596;10.042;2022-11-13T07:32:03;0.60;;;0.60;;
15637;SDS011;26604;53.596;10.042;2022-11-13T07:34:31;0.60;;;0.60;;
15637;SDS011;26604;53.596;10.042;2022-11-13T07:36:58;0.70;;;0.60;;
15637;SDS011;26604;53.596;10.042;2022-11-13T07:39:25;0.80;;;0.80;;
15637;SDS011;26604;53.596;10.042;2022-11-13T07:41:52;0.55;;;0.55;;
15637;SDS011;26604;53.596;10.042;2022-11-13T07:44:19;0.63;;;0.50;;
15637;SDS011;26604;53.596;10.042;2022-11-13T07:46:46;0.50;;;0.50;;
15637;SDS011;26604;53.596;10.042;2022-11-13T07:49:12;0.70;;;0.52;;
15637;SDS011;26604;53.596;10.042;2022-11-13T07:51:41;1.10;;;0.68;;
15637;SDS011;26604;53.596;10.042;2022-11-13T07:54:08;0.73;;;0.70;;
15637;SDS011;26604;53.596;10.042;2022-11-13T07:56:34;0.60;;;0.60;;
15637;SDS011;26604;53.596;10.042;2022-11-13T07:59:01;0.80;;;0.60;;
15637;SDS011;26604;53.596;10.042;2022-11-13T08:01:28;0.88;;;0.77;;
15637;SDS011;26604;53.596;10.042;2022-11-13T08:03:55;0.55;;;0.50;;
15637;SDS011;26604;53.596;10.042;2022-11-13T08:06:22;0.60;;;0.60;;
15637;SDS011;26604;53.596;10.042;2022-11-13T08:08:53;1.75;;;0.60;;
15637;SDS011;26604;53.596;10.042;2022-11-13T08:11:19;0.75;;;0.65;;
15637;SDS011;26604;53.596;10.042;2022-11-13T08:13:46;0.93;;;0.73;;
15637;SDS011;26604;53.596;10.042;2022-11-13T08:16:13;0.60;;;0.50;;
15637;SDS011;26604;53.596;10.042;2022-11-13T08:18:40;0.47;;;0.45;;
15637;SDS011;26604;53.596;10.042;2022-11-13T08:21:07;0.98;;;0.70;;
15637;SDS011;26604;53.596;10.042;2022-11-13T08:23:34;0.60;;;0.50;;
15637;SDS011;26604;53.596;10.042;2022-11-13T08:26:03;0.75;;;0.60;;
15637;SDS011;26604;53.596;10.042;2022-11-13T08:28:31;0.80;;;0.65;;
15637;SDS011;26604;53.596;10.042;2022-11-13T08:30:58;0.80;;;0.80;;
15637;SDS011;26604;53.596;10.042;2022-11-13T08:33:25;0.80;;;0.80;;
15637;SDS011;26604;53.596;10.042;2022-11-13T08:35:52;0.80;;;0.70;;
15637;SDS011;26604;53.596;10.042;2022-11-13T08:38:19;0.90;;;0.70;;
15637;SDS011;26604;53.596;10.042;2022-11-13T08:40:46;0.68;;;0.60;;
15637;SDS011;26604;53.596;10.042;2022-11-13T08:43:15;0.68;;;0.60;;
15637;SDS011;26604;53.596;10.042;2022-11-13T08:45:43;0.57;;;0.50;;
15637;SDS011;26604;53.596;10.042;2022-11-13T08:48:11;0.70;;;0.70;;
15637;SDS011;26604;53.596;10.042;2022-11-13T08:50:38;0.52;;;0.50;;
15637;SDS011;26604;53.596;10.042;2022-11-13T08:53:05;1.23;;;0.70;;
15637;SDS011;26604;53.596;10.042;2022-11-13T08:55:32;0.70;;;0.55;;
15637;SDS011;26604;53.596;10.042;2022-11-13T08:58:00;0.63;;;0.52;;
15637;SDS011;26604;53.596;10.042;2022-11-13T09:00:32;0.50;;;0.50;;
15637;SDS011;26604;53.596;10.042;2022-11-13T09:02:59;0.68;;;0.60;;
15637;SDS011;26604;53.596;10.042;2022-11-13T09:05:27;0.75;;;0.65;;
15637;SDS011;26604;53.596;10.042;2022-11-13T09:07:55;0.80;;;0.60;;
15637;SDS011;26604;53.596;10.042;2022-11-13T09:10:23;0.60;;;0.55;;
15637;SDS011;26604;53.596;10.042;2022-11-13T09:12:54;1.33;;;0.77;;
15637;SDS011;26604;53.596;10.042;2022-11-13T09:15:22;0.80;;;0.80;;
15637;SDS011;26604;53.596;10.042;2022-11-13T09:17:50;1.10;;;0.70;;
15637;SDS011;26604;53.596;10.042;2022-11-13T09:20:20;0.70;;;0.68;;
15637;SDS011;26604;53.596;10.042;2022-11-13T09:22:47;1.13;;;0.80;;
15637;SDS011;26604;53.596;10.042;2022-11-13T09:25:14;0.77;;;0.70;;
15637;SDS011;26604;53.596;10.042;2022-11-13T09:27:41;0.65;;;0.63;;
15637;SDS011;26604;53.596;10.042;2022-11-13T09:30:08;0.82;;;0.70;;
15637;SDS011;26604;53.596;10.042;2022-11-13T09:32:36;0.85;;;0.60;;
15637;SDS011;26604;53.596;10.042;2022-11-13T09:35:04;0.77;;;0.63;;
15637;SDS011;26604;53.596;10.042;2022-11-13T09:37:31;0.73;;;0.55;;
15637;SDS011;26604;53.596;10.042;2022-11-13T09:39:59;0.50;;;0.50;;
15637;SDS011;26604;53.596;10.042;2022-11-13T09:42:26;0.93;;;0.60;;
15637;SDS011;26604;53.596;10.042;2022-11-13T09:44:56;0.80;;;0.68;;
15637;SDS011;26604;53.596;10.042;2022-11-13T09:47:29;0.60;;;0.60;;
15637;SDS011;26604;53.596;10.042;2022-11-13T09:49:59;1.48;;;0.70;;
15637;SDS011;26604;53.596;10.042;2022-11-13T09:52:31;1.40;;;0.80;;
15637;SDS011;26604;53.596;10.042;2022-11-13T09:55:01;1.08;;;0.80;;
15637;SDS011;26604;53.596;10.042;2022-11-13T09:57:30;0.75;;;0.70;;
15637;SDS011;26604;53.596;10.042;2022-11-13T10:00:03;0.90;;;0.77;;
15637;SDS011;26604;53.596;10.042;2022-11-13T10:02:39;0.93;;;0.77;;
15637;SDS011;26604;53.596;10.042;2022-11-13T10:05:26;0.98;;;0.70;;
15637;SDS011;26604;53.596;10.042;2022-11-13T10:08:02;0.57;;;0.55;;
15637;SDS011;26604;53.596;10.042;2022-11-13T10:10:41;0.70;;;0.65;;
15637;SDS011;26604;53.596;10.042;2022-11-13T10:13:14;1.05;;;0.75;;
15637;SDS011;26604;53.596;10.042;2022-11-13T10:15:45;0.88;;;0.60;;
15637;SDS011;26604;53.596;10.042;2022-11-13T10:18:18;0.80;;;0.70;;
15637;SDS011;26604;53.596;10.042;2022-11-13T10:20:48;0.95;;;0.70;;
15637;SDS011;26604;53.596;10.042;2022-11-13T10:23:20;0.95;;;0.80;;
15637;SDS011;26604;53.596;10.042;2022-11-13T10:25:48;0.95;;;0.85;;
15637;SDS011;26604;53.596;10.042;2022-11-13T10:28:17;0.80;;;0.68;;
15637;SDS011;26604;53.596;10.042;2022-11-13T10:30:47;1.17;;;0.73;;
15637;SDS011;26604;53.596;10.042;2022-11-13T10:33:17;1.00;;;0.90;;
15637;SDS011;26604;53.596;10.042;2022-11-13T10:35:47;0.90;;;0.80;;
15637;SDS011;26604;53.596;10.042;2022-11-13T10:38:22;0.70;;;0.60;;
15637;SDS011;26604;53.596;10.042;2022-11-13T10:41:02;1.38;;;0.90;;
15637;SDS011;26604;53.596;10.042;2022-11-13T10:43:32;0.90;;;0.80;;
15637;SDS011;26604;53.596;10.042;2022-11-13T10:46:00;1.13;;;0.88;;
15637;SDS011;26604;53.596;10.042;2022-11-13T10:48:28;1.02;;;0.82;;
15637;SDS011;26604;53.596;10.042;2022-11-13T10:51:00;1.10;;;0.82;;
15637;SDS011;26604;53.596;10.042;2022-11-13T10:53:36;1.20;;;1.00;;
15637;SDS011;26604;53.596;10.042;2022-11-13T10:56:11;0.80;;;0.70;;
15637;SDS011;26604;53.596;10.042;2022-11-13T10:59:00;1.85;;;1.20;;
15637;SDS011;26604;53.596;10.042;2022-11-13T11:01:29;1.10;;;1.00;;
15637;SDS011;26604;53.596;10.042;2022-11-13T11:03:56;1.92;;;1.50;;
15637;SDS011;26604;53.596;10.042;2022-11-13T11:06:30;1.80;;;1.17;;
15637;SDS011;26604;53.596;10.042;2022-11-13T11:09:05;0.90;;;0.80;;
15637;SDS011;26604;53.596;10.042;2022-11-13T11:11:39;1.50;;;1.20;;
15637;SDS011;26604;53.596;10.042;2022-11-13T11:14:24;1.30;;;1.00;;
15637;SDS011;26604;53.596;10.042;2022-11-13T11:16:54;1.67;;;1.20;;
15637;SDS011;26604;53.596;10.042;2022-11-13T11:19:23;1.55;;;1.10;;
15637;SDS011;26604;53.596;10.042;2022-11-13T11:21:56;1.67;;;1.08;;
15637;SDS011;26604;53.596;10.042;2022-11-13T11:24:32;1.13;;;1.00;;
15637;SDS011;26604;53.596;10.042;2022-11-13T11:27:02;1.50;;;1.00;;
15637;SDS011;26604;53.596;10.042;2022-11-13T11:29:32;2.00;;;1.05;;
15637;SDS011;26604;53.596;10.042;2022-11-13T11:32:04;1.25;;;0.95;;
15637;SDS011;26604;53.596;10.042;2022-11-13T11:34:39;2.42;;;1.02;;
15637;SDS011;26604;53.596;10.042;2022-11-13T11:37:11;1.55;;;1.10;;
15637;SDS011;26604;53.596;10.042;2022-11-13T11:39:44;1.95;;;1.10;;
15637;SDS011;26604;53.596;10.042;2022-11-13T11:42:17;1.35;;;1.10;;
15637;SDS011;26604;53.596;10.042;2022-11-13T11:44:56;1.38;;;0.95;;
15637;SDS011;26604;53.596;10.042;2022-11-13T11:47:29;1.40;;;1.10;;
15637;SDS011;26604;53.596;10.042;2022-11-13T11:49:57;1.15;;;1.00;;
15637;SDS011;26604;53.596;10.042;2022-11-13T11:52:31;1.10;;;1.00;;
15637;SDS011;26604;53.596;10.042;2022-11-13T11:55:25;1.38;;;1.10;;
15637;SDS011;26604;53.596;10.042;2022-11-13T11:58:03;2.78;;;1.20;;
15637;SDS011;26604;53.596;10.042;2022-11-13T12:00:41;1.42;;;1.17;;
15637;SDS011;26604;53.596;10.042;2022-11-13T12:03:19;1.70;;;1.27;;
15637;SDS011;26604;53.596;10.042;2022-11-13T12:06:06;2.33;;;1.27;;
15637;SDS011;26604;53.596;10.042;2022-11-13T12:08:43;1.55;;;1.30;;
15637;SDS011;26604;53.596;10.042;2022-11-13T12:11:20;1.52;;;1.30;;
15637;SDS011;26604;53.596;10.042;2022-11-13T12:13:55;1.73;;;1.30;;
15637;SDS011;26604;53.596;10.042;2022-11-13T12:16:29;1.40;;;1.20;;
15637;SDS011;26604;53.596;10.042;2022-11-13T12:19:04;1.83;;;1.20;;
15637;SDS011;26604;53.596;10.042;2022-11-13T12:21:38;2.60;;;1.42;;
15637;SDS011;26604;53.596;10.042;2022-11-13T12:24:18;2.15;;;1.42;;
15637;SDS011;26604;53.596;10.042;2022-11-13T12:27:02;2.25;;;1.52;;
15637;SDS011;26604;53.596;10.042;2022-11-13T12:29:40;1.63;;;1.25;;
15637;SDS011;26604;53.596;10.042;2022-11-13T12:32:21;1.98;;;1.48;;
15637;SDS011;26604;53.596;10.042;2022-11-13T12:35:02;2.42;;;1.50;;
15637;SDS011;26604;53.596;10.042;2022-11-13T12:37:37;1.92;;;1.42;;
15637;SDS011;26604;53.596;10.042;2022-11-13T12:40:11;1.90;;;1.38;;
15637;SDS011;26604;53.596;10.042;2022-11-13T12:42:47;1.70;;;1.30;;
15637;SDS011;26604;53.596;10.042;2022-11-13T12:45:20;2.28;;;1.40;;
15637;SDS011;26604;53.596;10.042;2022-11-13T12:48:06;2.15;;;1.50;;
15637;SDS011;26604;53.596;10.042;2022-11-13T12:50:34;2.53;;;1.50;;
15637;SDS011;26604;53.596;10.042;2022-11-13T12:53:01;2.00;;;1.40;;
15637;SDS011;26604;53.596;10.042;2022-11-13T12:55:31;1.95;;;1.20;;
15637;SDS011;26604;53.596;10.042;2022-11-13T12:58:06;2.42;;;1.50;;
15637;SDS011;26604;53.596;10.042;2022-11-13T13:00:35;2.13;;;1.48;;
15637;SDS011;26604;53.596;10.042;2022-11-13T13:03:16;1.92;;;1.30;;
15637;SDS011;26604;53.596;10.042;2022-11-13T13:06:07;2.20;;;1.42;;
15637;SDS011;26604;53.596;10.042;2022-11-13T13:08:52;1.98;;;1.42;;
15637;SDS011;26604;53.596;10.042;2022-11-13T13:11:29;1.60;;;1.25;;
15637;SDS011;26604;53.596;10.042;2022-11-13T13:14:23;2.03;;;1.20;;
15637;SDS011;26604;53.596;10.042;2022-11-13T13:17:05;1.85;;;1.45;;
15637;SDS011;26604;53.596;10.042;2022-11-13T13:19:32;1.90;;;1.33;;
15637;SDS011;26604;53.596;10.042;2022-11-13T13:21:59;2.08;;;1.60;;
15637;SDS011;26604;53.596;10.042;2022-11-13T13:24:30;2.42;;;1.67;;
15637;SDS011;26604;53.596;10.042;2022-11-13T13:26:59;2.40;;;1.70;;
15637;SDS011;26604;53.596;10.042;2022-11-13T13:29:28;2.17;;;1.50;;
15637;SDS011;26604;53.596;10.042;2022-11-13T13:32:00;1.67;;;1.35;;
15637;SDS011;26604;53.596;10.042;2022-11-13T13:34:35;1.98;;;1.42;;
15637;SDS011;26604;53.596;10.042;2022-11-13T13:37:13;2.53;;;1.52;;
15637;SDS011;26604;53.596;10.042;2022-11-13T13:39:50;2.03;;;1.45;;
15637;SDS011;26604;53.596;10.042;2022-11-13T13:42:30;1.50;;;1.20;;
15637;SDS011;26604;53.596;10.042;2022-11-13T13:45:18;1.90;;;1.35;;
15637;SDS011;26604;53.596;10.042;2022-11-13T13:47:52;2.13;;;1.30;;
15637;SDS011;26604;53.596;10.042;2022-11-13T13:50:23;2.40;;;1.40;;
15637;SDS011;26604;53.596;10.042;2022-11-13T13:52:52;2.22;;;1.65;;
15637;SDS011;26604;53.596;10.042;2022-11-13T13:55:23;2.40;;;1.70;;
15637;SDS011;26604;53.596;10.042;2022-11-13T13:57:53;3.13;;;1.85;;
15637;SDS011;26604;53.596;10.042;2022-11-13T14:00:22;2.65;;;1.73;;
15637;SDS011;26604;53.596;10.042;2022-11-13T14:02:49;2.28;;;1.55;;
15637;SDS011;26604;53.596;10.042;2022-11-13T14:05:25;1.67;;;1.23;;
15637;SDS011;26604;53.596;10.042;2022-11-13T14:07:53;1.90;;;1.60;;
15637;SDS011;26604;53.596;10.042;2022-11-13T14:10:21;1.85;;;1.50;;
15637;SDS011;26604;53.596;10.042;2022-11-13T14:12:49;2.20;;;1.60;;
15637;SDS011;26604;53.596;10.042;2022-11-13T14:15:27;1.70;;;1.40;;
15637;SDS011;26604;53.596;10.042;2022-11-13T14:18:05;1.50;;;1.40;;
15637;SDS011;26604;53.596;10.042;2022-11-13T14:20:36;2.40;;;1.65;;
15637;SDS011;26604;53.596;10.042;2022-11-13T14:23:11;2.22;;;1.50;;
15637;SDS011;26604;53.596;10.042;2022-11-13T14:25:40;1.17;;;1.05;;
15637;SDS011;26604;53.596;10.042;2022-11-13T14:28:12;2.22;;;1.50;;
15637;SDS011;26604;53.596;10.042;2022-11-13T14:30:42;2.78;;;1.70;;
15637;SDS011;26604;53.596;10.042;2022-11-13T14:33:09;2.08;;;1.50;;
15637;SDS011;26604;53.596;10.042;2022-11-13T14:35:48;2.15;;;1.67;;
15637;SDS011;26604;53.596;10.042;2022-11-13T14:38:17;2.03;;;1.42;;
15637;SDS011;26604;53.596;10.042;2022-11-13T14:40:46;1.42;;;1.20;;
15637;SDS011;26604;53.596;10.042;2022-11-13T14:43:15;2.28;;;1.70;;
15637;SDS011;26604;53.596;10.042;2022-11-13T14:45:55;2.85;;;1.55;;
15637;SDS011;26604;53.596;10.042;2022-11-13T14:48:24;1.90;;;1.58;;